Погода Верхнеподпольныйна неделю

Ростовская область, Россия

22 - 28 мая
  • 22мая
    Сегодня
    +11°
    +28°
    Ясно и безоблачно
    ВремяПогодаТемператураВлажностьДавлениеВетер, м/сВероятность осадков
    00:00Ясно и безоблачно+17°C48 %763 мм0.4 м/с2 %
    03:00Ясно и безоблачно+12°C71 %763 мм1.9 м/с2 %
    06:00Ясно и безоблачно+13°C68 %763 мм2.2 м/с2 %
    09:00Ясно и безоблачно+22°C45 %763 мм2.2 м/с2 %
    12:00Ясно и безоблачно+28°C23 %763 мм3.9 м/с2 %
    15:00Ясно и безоблачно+28°C22 %762 мм4.3 м/с2 %
    18:00Ясно и безоблачно+27°C29 %761 мм3.2 м/с2 %
    21:00Ясно и безоблачно+18°C50 %761 мм1.9 м/с2 %
  • 23мая
    Четверг
    +15°
    +29°
    Ясно и безоблачно
    ВремяПогодаТемператураВлажностьДавлениеВетер, м/сВероятность осадков
    00:00Ясно и безоблачно+14°C65 %761 мм2.4 м/с2 %
    03:00Ясно и безоблачно+11°C72 %761 мм2.0 м/с2 %
    06:00Ясно и безоблачно+13°C71 %762 мм2.6 м/с2 %
    09:00Ясно и безоблачно+23°C45 %762 мм2.9 м/с2 %
    12:00Ясно и безоблачно+28°C27 %761 мм5.6 м/с2 %
    15:00Ясно и безоблачно+29°C24 %760 мм5.0 м/с2 %
    18:00Ясно и безоблачно+27°C26 %760 мм4.2 м/с2 %
    21:00Ясно и безоблачно+20°C37 %761 мм3.1 м/с2 %
  • 24мая
    Пятница
    +11°
    +25°
    Ясно и безоблачно
    ВремяПогодаТемператураВлажностьДавлениеВетер, м/сВероятность осадков
    00:00Ясно и безоблачно+19°C47 %761 мм5.1 м/с2 %
    03:00Ясно и безоблачно+16°C62 %762 мм5.3 м/с2 %
    06:00Ясно и безоблачно+17°C69 %763 мм6.9 м/с2 %
    09:00Ясно и безоблачно+21°C43 %764 мм8.3 м/с2 %
    12:00Ясно и безоблачно+24°C34 %765 мм9.4 м/с2 %
    15:00Ясно и безоблачно+25°C28 %764 мм9.3 м/с3 %
    18:00Ясно и безоблачно+23°C24 %765 мм8.7 м/с2 %
    21:00Ясно и безоблачно+18°C23 %766 мм8.0 м/с2 %
  • 25мая
    Суббота
    +13°
    +24°
    Ясно и безоблачно
    ВремяПогодаТемператураВлажностьДавлениеВетер, м/сВероятность осадков
    00:00Ясно и безоблачно+16°C28 %767 мм7.5 м/с2 %
    03:00Ясно и безоблачно+13°C29 %767 мм7.0 м/с2 %
    06:00Ясно и безоблачно+13°C34 %768 мм7.0 м/с2 %
    09:00Ясно и безоблачно+18°C30 %768 мм8.0 м/с2 %
    12:00Ясно и безоблачно+21°C22 %768 мм8.5 м/с2 %
    15:00Ясно и безоблачно+24°C20 %766 мм8.6 м/с2 %
    18:00Ясно и безоблачно+23°C20 %765 мм8.0 м/с2 %
    21:00Ясно и безоблачно+18°C26 %766 мм6.0 м/с2 %
  • 26мая
    Воскресенье
    +14°
    +23°
    Практически безоблачно
    ВремяПогодаТемператураВлажностьДавлениеВетер, м/сВероятность осадков
    00:00Пасмурно, сплошная облачность+17°C27 %766 мм6.0 м/с2 %
    03:00Пасмурно, сплошная облачность+15°C30 %765 мм4.8 м/с2 %
    06:00Облачно с прояснениями+14°C39 %765 мм6.1 м/с2 %
    09:00Облачно с прояснениями+17°C35 %765 мм6.9 м/с4 %
    12:00Облачно с прояснениями+20°C29 %764 мм8.3 м/с8 %
    15:00Практически безоблачно+22°C24 %763 мм8.1 м/с2 %
    18:00Небольшая облачность+22°C24 %763 мм6.3 м/с25 %
    21:00Небольшая облачность+19°C25 %763 мм5.9 м/с15 %
Мы используем cookies
Соглашаюсь